sensor_id;sensor_type;location;lat;lon;timestamp;temperature;humidity
71436;SHT31;59251;51.326;12.370;2023-07-02T00:01:42;17.57;94.99
71436;SHT31;59251;51.326;12.370;2023-07-02T00:04:09;17.57;94.88
71436;SHT31;59251;51.326;12.370;2023-07-02T00:06:40;17.51;95.14
71436;SHT31;59251;51.326;12.370;2023-07-02T00:09:07;17.52;94.96
71436;SHT31;59251;51.326;12.370;2023-07-02T00:11:34;17.55;94.76
71436;SHT31;59251;51.326;12.370;2023-07-02T00:14:01;17.65;94.42
71436;SHT31;59251;51.326;12.370;2023-07-02T00:16:27;17.65;94.16
71436;SHT31;59251;51.326;12.370;2023-07-02T00:18:54;17.57;94.15
71436;SHT31;59251;51.326;12.370;2023-07-02T00:21:21;17.64;93.91
71436;SHT31;59251;51.326;12.370;2023-07-02T00:23:49;17.69;93.80
71436;SHT31;59251;51.326;12.370;2023-07-02T00:26:15;17.68;93.73
71436;SHT31;59251;51.326;12.370;2023-07-02T00:28:42;17.68;93.79
71436;SHT31;59251;51.326;12.370;2023-07-02T00:31:09;17.71;93.69
71436;SHT31;59251;51.326;12.370;2023-07-02T00:33:35;17.74;93.67
71436;SHT31;59251;51.326;12.370;2023-07-02T00:36:02;17.69;93.61
71436;SHT31;59251;51.326;12.370;2023-07-02T00:38:29;17.72;93.77
71436;SHT31;59251;51.326;12.370;2023-07-02T00:40:57;17.72;93.69
71436;SHT31;59251;51.326;12.370;2023-07-02T00:43:24;17.75;93.74
71436;SHT31;59251;51.326;12.370;2023-07-02T00:45:51;17.74;93.68
71436;SHT31;59251;51.326;12.370;2023-07-02T00:48:17;17.79;93.43
71436;SHT31;59251;51.326;12.370;2023-07-02T00:50:44;17.77;93.46
71436;SHT31;59251;51.326;12.370;2023-07-02T00:53:11;17.75;93.51
71436;SHT31;59251;51.326;12.370;2023-07-02T00:55:38;17.79;93.32
71436;SHT31;59251;51.326;12.370;2023-07-02T00:58:06;17.78;93.55
71436;SHT31;59251;51.326;12.370;2023-07-02T01:00:33;17.82;93.18
71436;SHT31;59251;51.326;12.370;2023-07-02T01:03:00;17.88;93.08
71436;SHT31;59251;51.326;12.370;2023-07-02T01:05:28;17.85;93.23
71436;SHT31;59251;51.326;12.370;2023-07-02T01:08:01;17.86;92.90
71436;SHT31;59251;51.326;12.370;2023-07-02T01:10:28;17.86;92.75
71436;SHT31;59251;51.326;12.370;2023-07-02T01:12:57;17.85;93.10
71436;SHT31;59251;51.326;12.370;2023-07-02T01:15:27;17.92;92.88
71436;SHT31;59251;51.326;12.370;2023-07-02T01:17:54;17.90;92.99
71436;SHT31;59251;51.326;12.370;2023-07-02T01:20:24;17.89;93.08
71436;SHT31;59251;51.326;12.370;2023-07-02T01:22:53;17.88;93.05
71436;SHT31;59251;51.326;12.370;2023-07-02T01:25:19;17.88;93.23
71436;SHT31;59251;51.326;12.370;2023-07-02T01:27:50;17.86;93.16
71436;SHT31;59251;51.326;12.370;2023-07-02T01:30:18;17.85;93.24
71436;SHT31;59251;51.326;12.370;2023-07-02T01:32:45;17.77;93.57
71436;SHT31;59251;51.326;12.370;2023-07-02T01:35:12;17.78;93.63
71436;SHT31;59251;51.326;12.370;2023-07-02T01:37:40;17.81;93.65
71436;SHT31;59251;51.326;12.370;2023-07-02T01:40:07;17.81;93.67
71436;SHT31;59251;51.326;12.370;2023-07-02T01:42:35;17.68;94.35
71436;SHT31;59251;51.326;12.370;2023-07-02T01:45:02;17.72;94.11
71436;SHT31;59251;51.326;12.370;2023-07-02T01:47:29;17.67;94.32
71436;SHT31;59251;51.326;12.370;2023-07-02T01:49:56;17.60;94.55
71436;SHT31;59251;51.326;12.370;2023-07-02T01:52:22;17.51;94.94
71436;SHT31;59251;51.326;12.370;2023-07-02T01:54:50;17.50;95.28
71436;SHT31;59251;51.326;12.370;2023-07-02T01:57:18;17.52;95.17
71436;SHT31;59251;51.326;12.370;2023-07-02T01:59:44;17.65;94.72
71436;SHT31;59251;51.326;12.370;2023-07-02T02:02:11;17.64;94.70
71436;SHT31;59251;51.326;12.370;2023-07-02T02:04:38;17.64;94.64
71436;SHT31;59251;51.326;12.370;2023-07-02T02:07:04;17.62;94.82
71436;SHT31;59251;51.326;12.370;2023-07-02T02:09:32;17.60;94.76
71436;SHT31;59251;51.326;12.370;2023-07-02T02:12:00;17.61;94.83
71436;SHT31;59251;51.326;12.370;2023-07-02T02:14:26;17.60;95.00
71436;SHT31;59251;51.326;12.370;2023-07-02T02:16:53;17.58;95.06
71436;SHT31;59251;51.326;12.370;2023-07-02T02:19:20;17.58;95.06
71436;SHT31;59251;51.326;12.370;2023-07-02T02:21:46;17.52;95.32
71436;SHT31;59251;51.326;12.370;2023-07-02T02:24:13;17.54;95.26
71436;SHT31;59251;51.326;12.370;2023-07-02T02:26:40;17.52;95.28
71436;SHT31;59251;51.326;12.370;2023-07-02T02:29:08;17.57;95.16
71436;SHT31;59251;51.326;12.370;2023-07-02T02:31:35;17.60;95.14
71436;SHT31;59251;51.326;12.370;2023-07-02T02:34:03;17.51;95.43
71436;SHT31;59251;51.326;12.370;2023-07-02T02:36:30;17.57;95.26
71436;SHT31;59251;51.326;12.370;2023-07-02T02:38:57;17.45;95.79
71436;SHT31;59251;51.326;12.370;2023-07-02T02:41:27;17.48;95.61
71436;SHT31;59251;51.326;12.370;2023-07-02T02:43:53;17.54;95.30
71436;SHT31;59251;51.326;12.370;2023-07-02T02:46:23;17.45;95.64
71436;SHT31;59251;51.326;12.370;2023-07-02T02:48:50;17.54;95.55
71436;SHT31;59251;51.326;12.370;2023-07-02T02:51:17;17.55;95.43
71436;SHT31;59251;51.326;12.370;2023-07-02T02:53:44;17.47;95.94
71436;SHT31;59251;51.326;12.370;2023-07-02T02:56:11;17.44;96.15
71436;SHT31;59251;51.326;12.370;2023-07-02T02:58:38;17.41;96.24
71436;SHT31;59251;51.326;12.370;2023-07-02T03:01:04;17.42;96.23
71436;SHT31;59251;51.326;12.370;2023-07-02T03:03:38;17.40;96.07
71436;SHT31;59251;51.326;12.370;2023-07-02T03:06:06;17.40;96.07
71436;SHT31;59251;51.326;12.370;2023-07-02T03:08:32;17.40;96.14
71436;SHT31;59251;51.326;12.370;2023-07-02T03:10:59;17.26;96.77
71436;SHT31;59251;51.326;12.370;2023-07-02T03:13:26;17.27;96.82
71436;SHT31;59251;51.326;12.370;2023-07-02T03:15:52;17.27;96.76
71436;SHT31;59251;51.326;12.370;2023-07-02T03:18:19;17.31;96.38
71436;SHT31;59251;51.326;12.370;2023-07-02T03:20:47;17.30;96.20
71436;SHT31;59251;51.326;12.370;2023-07-02T03:23:14;17.28;96.02
71436;SHT31;59251;51.326;12.370;2023-07-02T03:25:40;17.21;96.15
71436;SHT31;59251;51.326;12.370;2023-07-02T03:28:07;17.27;95.66
71436;SHT31;59251;51.326;12.370;2023-07-02T03:30:34;17.30;95.36
71436;SHT31;59251;51.326;12.370;2023-07-02T03:33:00;17.31;95.30
71436;SHT31;59251;51.326;12.370;2023-07-02T03:35:27;17.34;94.63
71436;SHT31;59251;51.326;12.370;2023-07-02T03:37:55;17.32;94.49
71436;SHT31;59251;51.326;12.370;2023-07-02T03:40:23;17.32;93.68
71436;SHT31;59251;51.326;12.370;2023-07-02T03:42:49;17.38;93.37
71436;SHT31;59251;51.326;12.370;2023-07-02T03:45:16;17.37;92.69
71436;SHT31;59251;51.326;12.370;2023-07-02T03:47:42;17.30;92.64
71436;SHT31;59251;51.326;12.370;2023-07-02T03:50:09;17.40;91.18
71436;SHT31;59251;51.326;12.370;2023-07-02T03:52:36;17.41;91.31
71436;SHT31;59251;51.326;12.370;2023-07-02T03:55:05;17.45;91.32
71436;SHT31;59251;51.326;12.370;2023-07-02T03:57:32;17.47;90.87
71436;SHT31;59251;51.326;12.370;2023-07-02T03:59:59;17.47;90.94
71436;SHT31;59251;51.326;12.370;2023-07-02T04:02:25;17.48;90.41
71436;SHT31;59251;51.326;12.370;2023-07-02T04:04:52;17.50;90.16
71436;SHT31;59251;51.326;12.370;2023-07-02T04:07:18;17.52;90.07
71436;SHT31;59251;51.326;12.370;2023-07-02T04:09:45;17.52;90.21
71436;SHT31;59251;51.326;12.370;2023-07-02T04:12:13;17.52;90.39
71436;SHT31;59251;51.326;12.370;2023-07-02T04:14:40;17.57;90.30
71436;SHT31;59251;51.326;12.370;2023-07-02T04:17:08;17.54;90.33
71436;SHT31;59251;51.326;12.370;2023-07-02T04:19:34;17.58;90.33
71436;SHT31;59251;51.326;12.370;2023-07-02T04:22:01;17.57;90.37
71436;SHT31;59251;51.326;12.370;2023-07-02T04:24:28;17.55;90.60
71436;SHT31;59251;51.326;12.370;2023-07-02T04:26:55;17.55;90.60
71436;SHT31;59251;51.326;12.370;2023-07-02T04:29:23;17.57;90.68
71436;SHT31;59251;51.326;12.370;2023-07-02T04:31:49;17.61;90.63
71436;SHT31;59251;51.326;12.370;2023-07-02T04:34:16;17.60;90.65
71436;SHT31;59251;51.326;12.370;2023-07-02T04:36:43;17.61;90.76
71436;SHT31;59251;51.326;12.370;2023-07-02T04:39:10;17.68;90.72
71436;SHT31;59251;51.326;12.370;2023-07-02T04:41:36;17.65;90.87
71436;SHT31;59251;51.326;12.370;2023-07-02T04:44:03;17.67;90.95
71436;SHT31;59251;51.326;12.370;2023-07-02T04:46:31;17.72;90.54
71436;SHT31;59251;51.326;12.370;2023-07-02T04:48:58;17.71;90.81
71436;SHT31;59251;51.326;12.370;2023-07-02T04:51:25;17.72;90.70
71436;SHT31;59251;51.326;12.370;2023-07-02T04:53:51;17.78;89.64
71436;SHT31;59251;51.326;12.370;2023-07-02T04:56:18;17.78;89.43
71436;SHT31;59251;51.326;12.370;2023-07-02T04:58:45;17.86;89.23
71436;SHT31;59251;51.326;12.370;2023-07-02T05:01:11;17.90;88.85
71436;SHT31;59251;51.326;12.370;2023-07-02T05:03:40;18.00;88.66
71436;SHT31;59251;51.326;12.370;2023-07-02T05:06:06;17.98;88.55
71436;SHT31;59251;51.326;12.370;2023-07-02T05:08:33;17.96;88.65
71436;SHT31;59251;51.326;12.370;2023-07-02T05:10:59;17.92;88.58
71436;SHT31;59251;51.326;12.370;2023-07-02T05:13:26;17.95;88.96
71436;SHT31;59251;51.326;12.370;2023-07-02T05:15:53;18.00;88.37
71436;SHT31;59251;51.326;12.370;2023-07-02T05:18:20;18.19;87.86
71436;SHT31;59251;51.326;12.370;2023-07-02T05:20:48;18.27;87.52
71436;SHT31;59251;51.326;12.370;2023-07-02T05:23:14;18.25;87.68
71436;SHT31;59251;51.326;12.370;2023-07-02T05:25:41;18.37;87.18
71436;SHT31;59251;51.326;12.370;2023-07-02T05:28:08;18.34;86.80
71436;SHT31;59251;51.326;12.370;2023-07-02T05:30:35;18.40;86.11
71436;SHT31;59251;51.326;12.370;2023-07-02T05:33:01;18.58;85.67
71436;SHT31;59251;51.326;12.370;2023-07-02T05:35:28;18.72;85.16
71436;SHT31;59251;51.326;12.370;2023-07-02T05:37:56;18.74;85.01
71436;SHT31;59251;51.326;12.370;2023-07-02T05:40:23;18.71;84.40
71436;SHT31;59251;51.326;12.370;2023-07-02T05:42:49;18.60;84.72
71436;SHT31;59251;51.326;12.370;2023-07-02T05:45:16;18.72;84.15
71436;SHT31;59251;51.326;12.370;2023-07-02T05:47:43;18.57;84.57
71436;SHT31;59251;51.326;12.370;2023-07-02T05:50:09;18.68;83.94
71436;SHT31;59251;51.326;12.370;2023-07-02T05:52:36;18.81;83.82
71436;SHT31;59251;51.326;12.370;2023-07-02T05:55:05;18.87;82.08
71436;SHT31;59251;51.326;12.370;2023-07-02T05:57:31;18.87;81.86
71436;SHT31;59251;51.326;12.370;2023-07-02T05:59:58;18.84;81.65
71436;SHT31;59251;51.326;12.370;2023-07-02T06:02:25;18.92;81.20
71436;SHT31;59251;51.326;12.370;2023-07-02T06:04:51;18.89;81.61
71436;SHT31;59251;51.326;12.370;2023-07-02T06:07:18;19.18;80.65
71436;SHT31;59251;51.326;12.370;2023-07-02T06:09:45;19.13;79.76
71436;SHT31;59251;51.326;12.370;2023-07-02T06:12:13;19.18;78.78
71436;SHT31;59251;51.326;12.370;2023-07-02T06:14:39;19.20;78.99
71436;SHT31;59251;51.326;12.370;2023-07-02T06:17:07;19.32;79.08
71436;SHT31;59251;51.326;12.370;2023-07-02T06:19:36;19.30;77.92
71436;SHT31;59251;51.326;12.370;2023-07-02T06:22:03;19.37;78.42
71436;SHT31;59251;51.326;12.370;2023-07-02T06:24:30;19.49;78.61
71436;SHT31;59251;51.326;12.370;2023-07-02T06:26:57;19.51;78.45
71436;SHT31;59251;51.326;12.370;2023-07-02T06:29:25;19.51;77.83
71436;SHT31;59251;51.326;12.370;2023-07-02T06:31:53;19.71;75.81
71436;SHT31;59251;51.326;12.370;2023-07-02T06:34:20;19.78;74.69
71436;SHT31;59251;51.326;12.370;2023-07-02T06:36:47;20.02;74.74
71436;SHT31;59251;51.326;12.370;2023-07-02T06:39:14;20.02;74.73
71436;SHT31;59251;51.326;12.370;2023-07-02T06:41:41;20.11;75.30
71436;SHT31;59251;51.326;12.370;2023-07-02T06:44:08;20.02;76.26
71436;SHT31;59251;51.326;12.370;2023-07-02T06:46:36;19.81;77.29
71436;SHT31;59251;51.326;12.370;2023-07-02T06:49:02;19.80;77.79
71436;SHT31;59251;51.326;12.370;2023-07-02T06:51:29;19.81;78.33
71436;SHT31;59251;51.326;12.370;2023-07-02T06:53:56;19.84;78.65
71436;SHT31;59251;51.326;12.370;2023-07-02T06:56:23;19.82;78.80
71436;SHT31;59251;51.326;12.370;2023-07-02T06:58:49;19.74;78.87
71436;SHT31;59251;51.326;12.370;2023-07-02T07:01:16;19.82;78.85
71436;SHT31;59251;51.326;12.370;2023-07-02T07:03:44;19.87;78.91
71436;SHT31;59251;51.326;12.370;2023-07-02T07:06:11;19.94;78.56
71436;SHT31;59251;51.326;12.370;2023-07-02T07:08:38;19.97;78.67
71436;SHT31;59251;51.326;12.370;2023-07-02T07:11:05;20.02;78.30
71436;SHT31;59251;51.326;12.370;2023-07-02T07:13:32;19.99;78.12
71436;SHT31;59251;51.326;12.370;2023-07-02T07:15:58;20.18;76.95
71436;SHT31;59251;51.326;12.370;2023-07-02T07:18:25;20.29;75.48
71436;SHT31;59251;51.326;12.370;2023-07-02T07:20:53;20.32;73.54
71436;SHT31;59251;51.326;12.370;2023-07-02T07:23:21;20.43;73.54
71436;SHT31;59251;51.326;12.370;2023-07-02T07:25:48;20.84;71.60
71436;SHT31;59251;51.326;12.370;2023-07-02T07:28:14;20.94;71.09
71436;SHT31;59251;51.326;12.370;2023-07-02T07:30:42;21.03;69.64
71436;SHT31;59251;51.326;12.370;2023-07-02T07:33:10;20.90;68.16
71436;SHT31;59251;51.326;12.370;2023-07-02T07:35:37;20.79;68.74
71436;SHT31;59251;51.326;12.370;2023-07-02T07:38:05;20.79;70.05
71436;SHT31;59251;51.326;12.370;2023-07-02T07:40:31;20.83;70.54
71436;SHT31;59251;51.326;12.370;2023-07-02T07:42:58;20.81;70.63
71436;SHT31;59251;51.326;12.370;2023-07-02T07:45:25;20.81;70.32
71436;SHT31;59251;51.326;12.370;2023-07-02T07:47:52;20.88;70.03
71436;SHT31;59251;51.326;12.370;2023-07-02T07:50:18;21.03;69.54
71436;SHT31;59251;51.326;12.370;2023-07-02T07:52:45;21.12;69.50
71436;SHT31;59251;51.326;12.370;2023-07-02T07:55:13;20.98;69.45
71436;SHT31;59251;51.326;12.370;2023-07-02T07:57:41;20.91;69.55
71436;SHT31;59251;51.326;12.370;2023-07-02T08:00:09;20.97;68.44
71436;SHT31;59251;51.326;12.370;2023-07-02T08:02:42;20.95;68.14
71436;SHT31;59251;51.326;12.370;2023-07-02T08:05:09;20.86;67.32
71436;SHT31;59251;51.326;12.370;2023-07-02T08:07:36;20.81;65.60
71436;SHT31;59251;51.326;12.370;2023-07-02T08:10:03;20.86;65.89
71436;SHT31;59251;51.326;12.370;2023-07-02T08:12:31;20.86;65.22
71436;SHT31;59251;51.326;12.370;2023-07-02T08:14:58;20.93;64.83
71436;SHT31;59251;51.326;12.370;2023-07-02T08:17:24;21.00;64.28
71436;SHT31;59251;51.326;12.370;2023-07-02T08:19:51;20.95;64.61
71436;SHT31;59251;51.326;12.370;2023-07-02T08:22:18;21.18;64.00
71436;SHT31;59251;51.326;12.370;2023-07-02T08:24:44;21.27;63.45
71436;SHT31;59251;51.326;12.370;2023-07-02T08:27:14;21.21;63.59
71436;SHT31;59251;51.326;12.370;2023-07-02T08:29:45;21.12;63.53
71436;SHT31;59251;51.326;12.370;2023-07-02T08:32:12;21.03;64.32
71436;SHT31;59251;51.326;12.370;2023-07-02T08:34:39;21.24;64.23
71436;SHT31;59251;51.326;12.370;2023-07-02T08:37:05;21.34;63.06
71436;SHT31;59251;51.326;12.370;2023-07-02T08:39:33;21.28;63.35
71436;SHT31;59251;51.326;12.370;2023-07-02T08:42:01;21.45;63.55
71436;SHT31;59251;51.326;12.370;2023-07-02T08:44:28;21.31;63.58
71436;SHT31;59251;51.326;12.370;2023-07-02T08:46:56;21.08;64.12
71436;SHT31;59251;51.326;12.370;2023-07-02T08:49:23;21.20;63.64
71436;SHT31;59251;51.326;12.370;2023-07-02T08:51:49;21.04;64.12
71436;SHT31;59251;51.326;12.370;2023-07-02T08:54:17;21.15;64.10
71436;SHT31;59251;51.326;12.370;2023-07-02T08:56:44;21.18;64.67
71436;SHT31;59251;51.326;12.370;2023-07-02T08:59:11;21.05;64.71
71436;SHT31;59251;51.326;12.370;2023-07-02T09:01:45;21.00;63.26
71436;SHT31;59251;51.326;12.370;2023-07-02T09:04:19;21.00;63.31
71436;SHT31;59251;51.326;12.370;2023-07-02T09:06:47;21.20;63.11
71436;SHT31;59251;51.326;12.370;2023-07-02T09:09:14;21.34;63.00
71436;SHT31;59251;51.326;12.370;2023-07-02T09:11:48;21.35;63.48
71436;SHT31;59251;51.326;12.370;2023-07-02T09:14:25;21.24;63.92
71436;SHT31;59251;51.326;12.370;2023-07-02T09:17:03;21.11;64.72
71436;SHT31;59251;51.326;12.370;2023-07-02T09:19:32;21.14;64.94
71436;SHT31;59251;51.326;12.370;2023-07-02T09:21:59;21.17;64.85
71436;SHT31;59251;51.326;12.370;2023-07-02T09:24:27;21.18;65.54
71436;SHT31;59251;51.326;12.370;2023-07-02T09:26:57;21.28;65.60
71436;SHT31;59251;51.326;12.370;2023-07-02T09:29:25;21.11;65.92
71436;SHT31;59251;51.326;12.370;2023-07-02T09:31:54;21.38;65.97
71436;SHT31;59251;51.326;12.370;2023-07-02T09:34:27;21.97;64.85
71436;SHT31;59251;51.326;12.370;2023-07-02T09:36:55;22.25;63.43
71436;SHT31;59251;51.326;12.370;2023-07-02T09:39:26;22.66;63.24
71436;SHT31;59251;51.326;12.370;2023-07-02T09:41:54;22.72;62.77
71436;SHT31;59251;51.326;12.370;2023-07-02T09:44:22;22.81;62.32
71436;SHT31;59251;51.326;12.370;2023-07-02T09:46:53;22.66;61.84
71436;SHT31;59251;51.326;12.370;2023-07-02T09:49:22;22.62;61.84
71436;SHT31;59251;51.326;12.370;2023-07-02T09:51:49;22.58;59.86
71436;SHT31;59251;51.326;12.370;2023-07-02T09:54:18;22.81;60.21
71436;SHT31;59251;51.326;12.370;2023-07-02T09:56:46;22.57;59.34
71436;SHT31;59251;51.326;12.370;2023-07-02T09:59:13;22.79;60.14
71436;SHT31;59251;51.326;12.370;2023-07-02T10:01:40;22.64;60.84
71436;SHT31;59251;51.326;12.370;2023-07-02T10:04:11;22.78;60.85
71436;SHT31;59251;51.326;12.370;2023-07-02T10:06:44;22.64;61.37
71436;SHT31;59251;51.326;12.370;2023-07-02T10:09:11;22.85;60.22
71436;SHT31;59251;51.326;12.370;2023-07-02T10:11:39;22.94;60.05
71436;SHT31;59251;51.326;12.370;2023-07-02T10:14:06;22.81;59.42
71436;SHT31;59251;51.326;12.370;2023-07-02T10:16:33;22.92;59.36
71436;SHT31;59251;51.326;12.370;2023-07-02T10:19:09;23.00;59.97
71436;SHT31;59251;51.326;12.370;2023-07-02T10:21:36;23.02;59.00
71436;SHT31;59251;51.326;12.370;2023-07-02T10:24:10;23.07;57.92
71436;SHT31;59251;51.326;12.370;2023-07-02T10:26:37;23.22;58.40
71436;SHT31;59251;51.326;12.370;2023-07-02T10:29:06;23.12;57.43
71436;SHT31;59251;51.326;12.370;2023-07-02T10:31:33;22.84;57.33
71436;SHT31;59251;51.326;12.370;2023-07-02T10:33:59;23.12;58.18
71436;SHT31;59251;51.326;12.370;2023-07-02T10:36:26;22.96;56.26
71436;SHT31;59251;51.326;12.370;2023-07-02T10:38:53;23.00;56.77
71436;SHT31;59251;51.326;12.370;2023-07-02T10:41:23;23.33;57.04
71436;SHT31;59251;51.326;12.370;2023-07-02T10:43:51;23.37;56.78
71436;SHT31;59251;51.326;12.370;2023-07-02T10:46:22;23.79;56.75
71436;SHT31;59251;51.326;12.370;2023-07-02T10:48:52;23.70;57.17
71436;SHT31;59251;51.326;12.370;2023-07-02T10:51:19;23.19;58.14
71436;SHT31;59251;51.326;12.370;2023-07-02T10:53:56;22.91;59.05
71436;SHT31;59251;51.326;12.370;2023-07-02T10:56:23;23.05;58.67
71436;SHT31;59251;51.326;12.370;2023-07-02T10:58:50;23.09;58.47
71436;SHT31;59251;51.326;12.370;2023-07-02T11:01:24;23.00;58.21
71436;SHT31;59251;51.326;12.370;2023-07-02T11:03:58;22.92;58.75
71436;SHT31;59251;51.326;12.370;2023-07-02T11:06:26;22.69;60.04
71436;SHT31;59251;51.326;12.370;2023-07-02T11:08:53;22.65;60.14
71436;SHT31;59251;51.326;12.370;2023-07-02T11:11:21;22.54;60.30
71436;SHT31;59251;51.326;12.370;2023-07-02T11:13:49;22.52;60.61
71436;SHT31;59251;51.326;12.370;2023-07-02T11:16:20;22.81;59.85
71436;SHT31;59251;51.326;12.370;2023-07-02T11:18:51;22.54;60.40
71436;SHT31;59251;51.326;12.370;2023-07-02T11:21:18;22.62;59.19
71436;SHT31;59251;51.326;12.370;2023-07-02T11:23:45;22.49;60.35
71436;SHT31;59251;51.326;12.370;2023-07-02T11:26:11;22.81;60.45
71436;SHT31;59251;51.326;12.370;2023-07-02T11:28:48;22.94;60.14
71436;SHT31;59251;51.326;12.370;2023-07-02T11:31:24;22.61;59.54
71436;SHT31;59251;51.326;12.370;2023-07-02T11:33:52;23.46;58.06
71436;SHT31;59251;51.326;12.370;2023-07-02T11:36:21;23.33;58.56
71436;SHT31;59251;51.326;12.370;2023-07-02T11:38:49;23.55;57.96
71436;SHT31;59251;51.326;12.370;2023-07-02T11:41:15;23.20;58.59
71436;SHT31;59251;51.326;12.370;2023-07-02T11:43:42;22.86;59.34
71436;SHT31;59251;51.326;12.370;2023-07-02T11:46:09;23.27;58.03
71436;SHT31;59251;51.326;12.370;2023-07-02T11:48:35;24.02;55.97
71436;SHT31;59251;51.326;12.370;2023-07-02T11:51:03;24.08;55.90
71436;SHT31;59251;51.326;12.370;2023-07-02T11:53:30;24.41;55.14
71436;SHT31;59251;51.326;12.370;2023-07-02T11:55:57;24.18;56.20
71436;SHT31;59251;51.326;12.370;2023-07-02T11:58:24;25.16;54.30
71436;SHT31;59251;51.326;12.370;2023-07-02T12:00:51;24.67;55.45
71436;SHT31;59251;51.326;12.370;2023-07-02T12:03:18;24.37;55.40
71436;SHT31;59251;51.326;12.370;2023-07-02T12:05:44;24.36;55.97
71436;SHT31;59251;51.326;12.370;2023-07-02T12:08:13;24.35;55.48
71436;SHT31;59251;51.326;12.370;2023-07-02T12:10:40;24.67;54.56
71436;SHT31;59251;51.326;12.370;2023-07-02T12:13:07;24.06;54.21
71436;SHT31;59251;51.326;12.370;2023-07-02T12:15:33;23.65;55.35
71436;SHT31;59251;51.326;12.370;2023-07-02T12:18:00;24.25;54.77
71436;SHT31;59251;51.326;12.370;2023-07-02T12:20:27;24.88;53.43
71436;SHT31;59251;51.326;12.370;2023-07-02T12:22:53;24.41;53.37
71436;SHT31;59251;51.326;12.370;2023-07-02T12:25:22;25.10;52.28
71436;SHT31;59251;51.326;12.370;2023-07-02T12:27:48;24.84;53.03
71436;SHT31;59251;51.326;12.370;2023-07-02T12:30:15;25.29;50.90
71436;SHT31;59251;51.326;12.370;2023-07-02T12:32:43;24.74;52.15
71436;SHT31;59251;51.326;12.370;2023-07-02T12:35:10;25.01;52.21
71436;SHT31;59251;51.326;12.370;2023-07-02T12:37:43;26.13;49.81
71436;SHT31;59251;51.326;12.370;2023-07-02T12:40:10;26.42;49.85
71436;SHT31;59251;51.326;12.370;2023-07-02T12:42:38;25.56;51.28
71436;SHT31;59251;51.326;12.370;2023-07-02T12:45:06;25.03;52.31
71436;SHT31;59251;51.326;12.370;2023-07-02T12:47:33;24.60;52.95
71436;SHT31;59251;51.326;12.370;2023-07-02T12:49:59;24.61;52.92
71436;SHT31;59251;51.326;12.370;2023-07-02T12:52:28;24.90;52.32
71436;SHT31;59251;51.326;12.370;2023-07-02T12:54:55;24.98;51.25
71436;SHT31;59251;51.326;12.370;2023-07-02T12:57:22;23.99;52.99
71436;SHT31;59251;51.326;12.370;2023-07-02T12:59:50;24.13;53.35
71436;SHT31;59251;51.326;12.370;2023-07-02T13:02:17;24.33;52.30
71436;SHT31;59251;51.326;12.370;2023-07-02T13:04:43;24.91;52.19
71436;SHT31;59251;51.326;12.370;2023-07-02T13:07:10;24.98;50.63
71436;SHT31;59251;51.326;12.370;2023-07-02T13:09:37;25.19;50.96
71436;SHT31;59251;51.326;12.370;2023-07-02T13:12:04;24.71;52.90
71436;SHT31;59251;51.326;12.370;2023-07-02T13:14:31;25.05;51.58
71436;SHT31;59251;51.326;12.370;2023-07-02T13:16:59;24.63;51.67
71436;SHT31;59251;51.326;12.370;2023-07-02T13:19:28;24.76;51.08
71436;SHT31;59251;51.326;12.370;2023-07-02T13:21:55;24.92;50.58
71436;SHT31;59251;51.326;12.370;2023-07-02T13:24:21;24.92;50.09
71436;SHT31;59251;51.326;12.370;2023-07-02T13:26:48;26.48;47.77
71436;SHT31;59251;51.326;12.370;2023-07-02T13:29:15;27.17;47.45
71436;SHT31;59251;51.326;12.370;2023-07-02T13:31:42;26.31;49.14
71436;SHT31;59251;51.326;12.370;2023-07-02T13:34:10;24.66;51.83
71436;SHT31;59251;51.326;12.370;2023-07-02T13:36:37;24.63;52.14
71436;SHT31;59251;51.326;12.370;2023-07-02T13:39:03;25.04;51.48
71436;SHT31;59251;51.326;12.370;2023-07-02T13:41:30;24.63;51.96
71436;SHT31;59251;51.326;12.370;2023-07-02T13:43:57;26.72;48.42
71436;SHT31;59251;51.326;12.370;2023-07-02T13:46:23;26.76;47.94
71436;SHT31;59251;51.326;12.370;2023-07-02T13:48:50;25.60;47.07
71436;SHT31;59251;51.326;12.370;2023-07-02T13:51:18;26.01;46.67
71436;SHT31;59251;51.326;12.370;2023-07-02T13:53:45;25.32;47.65
71436;SHT31;59251;51.326;12.370;2023-07-02T13:56:11;24.78;49.01
71436;SHT31;59251;51.326;12.370;2023-07-02T13:59:00;24.81;49.49
71436;SHT31;59251;51.326;12.370;2023-07-02T14:01:27;26.25;47.37
71436;SHT31;59251;51.326;12.370;2023-07-02T14:03:54;26.25;47.83
71436;SHT31;59251;51.326;12.370;2023-07-02T14:06:20;25.62;49.33
71436;SHT31;59251;51.326;12.370;2023-07-02T14:08:47;24.77;50.81
71436;SHT31;59251;51.326;12.370;2023-07-02T14:11:14;24.83;51.53
71436;SHT31;59251;51.326;12.370;2023-07-02T14:13:41;25.87;49.16
71436;SHT31;59251;51.326;12.370;2023-07-02T14:16:09;25.89;49.37
71436;SHT31;59251;51.326;12.370;2023-07-02T14:18:36;24.73;51.23
71436;SHT31;59251;51.326;12.370;2023-07-02T14:21:02;23.82;52.32
71436;SHT31;59251;51.326;12.370;2023-07-02T14:23:29;23.57;53.13
71436;SHT31;59251;51.326;12.370;2023-07-02T14:25:56;23.75;52.57
71436;SHT31;59251;51.326;12.370;2023-07-02T14:28:22;23.67;52.70
71436;SHT31;59251;51.326;12.370;2023-07-02T14:30:56;23.60;53.03
71436;SHT31;59251;51.326;12.370;2023-07-02T14:33:25;23.84;52.80
71436;SHT31;59251;51.326;12.370;2023-07-02T14:35:51;23.77;53.10
71436;SHT31;59251;51.326;12.370;2023-07-02T14:38:18;23.62;53.03
71436;SHT31;59251;51.326;12.370;2023-07-02T14:40:45;23.49;52.52
71436;SHT31;59251;51.326;12.370;2023-07-02T14:43:12;23.26;52.27
71436;SHT31;59251;51.326;12.370;2023-07-02T14:45:44;23.97;51.59
71436;SHT31;59251;51.326;12.370;2023-07-02T14:48:11;24.36;50.31
71436;SHT31;59251;51.326;12.370;2023-07-02T14:50:43;23.95;51.08
71436;SHT31;59251;51.326;12.370;2023-07-02T14:53:10;24.37;50.49
71436;SHT31;59251;51.326;12.370;2023-07-02T14:55:37;24.95;49.31
71436;SHT31;59251;51.326;12.370;2023-07-02T14:58:04;25.65;48.30
71436;SHT31;59251;51.326;12.370;2023-07-02T15:00:31;25.29;48.68
71436;SHT31;59251;51.326;12.370;2023-07-02T15:02:57;24.55;49.19
71436;SHT31;59251;51.326;12.370;2023-07-02T15:05:24;24.36;49.20
71436;SHT31;59251;51.326;12.370;2023-07-02T15:07:52;24.84;48.09
71436;SHT31;59251;51.326;12.370;2023-07-02T15:10:19;24.78;48.31
71436;SHT31;59251;51.326;12.370;2023-07-02T15:12:46;24.28;48.67
71436;SHT31;59251;51.326;12.370;2023-07-02T15:15:13;25.05;47.60
71436;SHT31;59251;51.326;12.370;2023-07-02T15:17:41;25.10;47.21